createdAt,value
2022-12-27T00:00:21.577Z,20.42
2022-12-27T00:02:48.054Z,20.43
2022-12-27T00:05:15.539Z,20.41
2022-12-27T00:07:42.370Z,20.40
2022-12-27T00:10:09.112Z,20.39
2022-12-27T00:12:35.436Z,20.39
2022-12-27T00:15:01.953Z,20.40
2022-12-27T00:17:29.176Z,20.39
2022-12-27T00:19:55.503Z,20.36
2022-12-27T00:22:21.861Z,20.36
2022-12-27T00:24:48.198Z,20.36
2022-12-27T00:27:14.540Z,20.35
2022-12-27T00:29:40.868Z,20.34
2022-12-27T00:32:07.224Z,20.33
2022-12-27T00:34:33.547Z,20.33
2022-12-27T00:36:59.880Z,20.31
2022-12-27T00:39:26.600Z,20.30
2022-12-27T00:41:52.924Z,20.29
2022-12-27T00:44:19.263Z,20.27
2022-12-27T00:46:45.600Z,20.33
2022-12-27T00:49:11.941Z,20.33
2022-12-27T00:51:38.484Z,20.34
2022-12-27T00:54:04.931Z,20.34
2022-12-27T00:56:32.789Z,20.35
2022-12-27T00:58:59.809Z,20.34
2022-12-27T01:01:26.672Z,20.35
2022-12-27T01:03:53.120Z,20.34
2022-12-27T01:06:22.598Z,20.32
2022-12-27T01:08:48.927Z,20.29
2022-12-27T01:11:15.617Z,20.27
2022-12-27T01:13:41.949Z,20.25
2022-12-27T01:16:11.517Z,20.22
2022-12-27T01:18:37.882Z,20.22
2022-12-27T01:21:05.207Z,20.21
2022-12-27T01:23:31.884Z,20.23
2022-12-27T01:26:01.503Z,20.23
2022-12-27T01:28:27.832Z,20.25
2022-12-27T01:30:54.167Z,20.27
2022-12-27T01:33:20.516Z,20.27
2022-12-27T01:35:46.850Z,20.28
2022-12-27T01:38:13.192Z,20.29
2022-12-27T01:40:39.526Z,20.31
2022-12-27T01:43:05.858Z,20.30
2022-12-27T01:45:33.054Z,20.31
2022-12-27T01:48:13.074Z,20.31
2022-12-27T01:50:40.833Z,20.29
2022-12-27T01:53:17.336Z,20.28
2022-12-27T01:55:53.650Z,20.29
2022-12-27T01:58:23.275Z,20.28
2022-12-27T02:00:49.758Z,20.28
2022-12-27T02:03:19.062Z,20.27
2022-12-27T02:05:45.763Z,20.28
2022-12-27T02:08:16.231Z,20.27
2022-12-27T02:10:42.575Z,20.29
2022-12-27T02:13:09.044Z,20.28
2022-12-27T02:15:35.838Z,20.28
2022-12-27T02:18:02.183Z,20.30
2022-12-27T02:20:32.256Z,20.31
2022-12-27T02:23:26.276Z,20.30
2022-12-27T02:26:11.239Z,20.32
2022-12-27T02:28:54.381Z,20.29
2022-12-27T02:31:31.209Z,20.29
2022-12-27T02:33:57.532Z,20.30
2022-12-27T02:36:24.524Z,20.30
2022-12-27T02:55:05.532Z,20.28
2022-12-27T02:57:42.446Z,20.27
2022-12-27T03:00:28.832Z,20.28
2022-12-27T03:03:23.251Z,20.29
2022-12-27T03:06:21.856Z,20.29
2022-12-27T03:08:53.974Z,20.30
2022-12-27T03:11:39.092Z,20.30
2022-12-27T03:14:25.853Z,20.30
2022-12-27T03:16:56.207Z,20.29
2022-12-27T03:19:49.379Z,20.27
2022-12-27T03:22:34.258Z,20.27
2022-12-27T03:25:19.057Z,20.26
2022-12-27T03:27:45.405Z,20.26
2022-12-27T03:30:30.315Z,20.24
2022-12-27T03:33:15.306Z,20.25
2022-12-27T03:35:42.195Z,20.25
2022-12-27T03:38:08.531Z,20.25
2022-12-27T03:40:34.826Z,20.25
2022-12-27T03:43:11.764Z,20.24
2022-12-27T03:46:04.007Z,20.25
2022-12-27T03:48:30.713Z,20.25
2022-12-27T03:50:57.457Z,20.27
2022-12-27T03:53:25.722Z,20.28
2022-12-27T03:55:52.106Z,20.28
2022-12-27T03:58:18.435Z,20.29
2022-12-27T04:00:44.770Z,20.30
2022-12-27T04:03:11.158Z,20.30
2022-12-27T04:05:37.533Z,20.33
2022-12-27T04:08:22.591Z,20.33
2022-12-27T04:11:07.528Z,20.32
2022-12-27T04:13:53.057Z,20.33
2022-12-27T04:16:38.158Z,20.34
2022-12-27T04:19:23.186Z,20.33
2022-12-27T04:22:08.085Z,20.33
2022-12-27T04:24:52.954Z,20.33
2022-12-27T04:27:38.035Z,20.33
2022-12-27T04:30:23.140Z,20.33
2022-12-27T04:33:08.037Z,20.34
2022-12-27T04:35:34.391Z,20.33
2022-12-27T04:38:00.728Z,20.33
2022-12-27T04:40:45.928Z,20.33
2022-12-27T04:43:30.859Z,20.34
2022-12-27T04:46:16.053Z,20.35
2022-12-27T04:49:00.801Z,20.34
2022-12-27T04:51:45.599Z,20.34
2022-12-27T04:54:38.816Z,20.32
2022-12-27T04:57:05.186Z,20.33
2022-12-27T04:59:50.242Z,20.34
2022-12-27T05:02:16.824Z,20.34
2022-12-27T05:04:43.189Z,20.34
2022-12-27T05:07:28.904Z,20.36
2022-12-27T05:10:14.084Z,20.35
2022-12-27T05:12:58.922Z,20.37
2022-12-27T05:15:25.230Z,20.38
2022-12-27T05:17:51.556Z,20.39
2022-12-27T05:20:17.873Z,20.39
2022-12-27T05:23:02.981Z,20.39
2022-12-27T05:25:35.115Z,20.38
2022-12-27T05:28:01.698Z,20.38
2022-12-27T05:30:28.012Z,20.36
2022-12-27T05:32:54.750Z,20.36
2022-12-27T05:35:21.055Z,20.36
2022-12-27T05:37:51.536Z,20.36
2022-12-27T05:40:23.979Z,20.37
2022-12-27T05:42:50.360Z,20.39
2022-12-27T05:45:16.746Z,20.38
2022-12-27T05:47:43.080Z,20.38
2022-12-27T05:50:09.530Z,20.39
2022-12-27T05:52:40.797Z,20.37
2022-12-27T05:55:07.660Z,20.36
2022-12-27T05:57:34.087Z,20.37
2022-12-27T06:00:00.461Z,20.36
2022-12-27T06:02:26.918Z,20.36
2022-12-27T06:04:53.358Z,20.37
2022-12-27T06:07:19.682Z,20.37
2022-12-27T06:09:46.009Z,20.38
2022-12-27T06:12:12.383Z,20.39
2022-12-27T06:14:41.257Z,20.40
2022-12-27T06:17:07.613Z,20.40
2022-12-27T06:19:33.952Z,20.41
2022-12-27T06:22:00.371Z,20.42
2022-12-27T06:24:26.699Z,20.42
2022-12-27T06:26:53.048Z,20.41
2022-12-27T06:29:19.394Z,20.40
2022-12-27T06:31:46.004Z,20.40
2022-12-27T06:34:12.368Z,20.40
2022-12-27T06:36:38.693Z,20.39
2022-12-27T06:39:05.074Z,20.39
2022-12-27T06:41:31.403Z,20.40
2022-12-27T06:43:57.735Z,20.38
2022-12-27T06:46:27.086Z,20.40
2022-12-27T06:48:53.467Z,20.41
2022-12-27T06:51:19.901Z,20.41
2022-12-27T06:53:46.666Z,20.41
2022-12-27T06:56:13.834Z,20.41
2022-12-27T06:58:40.176Z,20.40
2022-12-27T07:01:07.300Z,20.40
2022-12-27T07:03:33.664Z,20.40
2022-12-27T07:06:03.489Z,20.39
2022-12-27T07:08:29.809Z,20.40
2022-12-27T07:11:03.265Z,20.41
2022-12-27T07:13:29.602Z,20.41
2022-12-27T07:15:55.972Z,20.41
2022-12-27T07:18:22.315Z,20.42
2022-12-27T07:20:48.655Z,20.41
2022-12-27T07:23:19.256Z,20.44
2022-12-27T07:25:46.134Z,20.42
2022-12-27T07:28:12.577Z,20.28
2022-12-27T07:30:42.071Z,20.22
2022-12-27T07:33:08.506Z,20.29
2022-12-27T07:35:34.839Z,20.33
2022-12-27T07:38:01.190Z,20.34
2022-12-27T07:40:27.523Z,20.37
2022-12-27T07:42:53.863Z,20.36
2022-12-27T07:45:20.183Z,20.39
2022-12-27T07:47:46.509Z,20.39
2022-12-27T07:50:12.867Z,20.40
2022-12-27T07:52:39.203Z,20.39
2022-12-27T07:55:05.711Z,20.40
2022-12-27T07:57:32.064Z,20.40
2022-12-27T07:59:58.407Z,20.39
2022-12-27T08:02:24.859Z,20.40
2022-12-27T08:04:51.433Z,20.39
2022-12-27T08:07:18.504Z,20.39
2022-12-27T08:09:45.262Z,20.38
2022-12-27T08:12:13.389Z,20.38
2022-12-27T08:14:39.951Z,20.39
2022-12-27T08:17:08.464Z,20.39
2022-12-27T08:19:34.896Z,20.39
2022-12-27T08:22:01.206Z,20.42
2022-12-27T08:24:27.681Z,20.45
2022-12-27T08:26:54.084Z,20.46
2022-12-27T08:29:20.458Z,20.45
2022-12-27T08:31:46.777Z,20.44
2022-12-27T08:34:13.111Z,20.43
2022-12-27T08:36:55.193Z,20.43
2022-12-27T08:39:21.812Z,20.42
2022-12-27T08:41:48.163Z,20.42
2022-12-27T08:44:14.503Z,20.43
2022-12-27T08:46:41.019Z,20.44
2022-12-27T08:49:07.430Z,20.44
2022-12-27T08:51:40.899Z,20.45
2022-12-27T08:54:07.682Z,20.45
2022-12-27T08:56:34.011Z,20.45
2022-12-27T08:59:00.384Z,20.44
2022-12-27T09:01:26.871Z,20.43
2022-12-27T09:03:53.288Z,20.42
2022-12-27T09:06:20.419Z,20.15
2022-12-27T09:08:47.407Z,18.19
2022-12-27T09:11:14.665Z,18.25
2022-12-27T09:13:41.236Z,17.32
2022-12-27T09:16:08.292Z,16.68
2022-12-27T09:18:34.642Z,16.63
2022-12-27T09:21:04.481Z,17.65
2022-12-27T09:23:31.137Z,17.97
2022-12-27T09:25:57.454Z,18.56
2022-12-27T09:28:23.795Z,18.94
2022-12-27T09:30:50.163Z,19.16
2022-12-27T09:33:16.530Z,19.33
2022-12-27T09:35:42.987Z,19.46
2022-12-27T09:38:09.312Z,19.56
2022-12-27T09:40:35.631Z,19.63
2022-12-27T09:43:19.464Z,19.70
2022-12-27T09:45:50.951Z,19.77
2022-12-27T09:48:21.398Z,19.83
2022-12-27T09:50:55.426Z,19.85
2022-12-27T09:53:22.262Z,19.96
2022-12-27T09:55:49.746Z,19.97
2022-12-27T09:58:22.563Z,19.99
2022-12-27T10:00:51.796Z,20.00
2022-12-27T10:03:19.895Z,20.03
2022-12-27T10:05:46.259Z,20.05
2022-12-27T10:08:21.836Z,20.05
2022-12-27T10:11:08.238Z,20.06
2022-12-27T10:13:38.691Z,20.06
2022-12-27T10:16:04.977Z,20.06
2022-12-27T10:18:38.579Z,20.08
2022-12-27T10:21:23.086Z,20.11
2022-12-27T10:23:53.036Z,20.12
2022-12-27T10:26:19.374Z,20.13
2022-12-27T10:28:46.447Z,20.15
2022-12-27T10:31:16.846Z,20.18
2022-12-27T10:33:43.617Z,20.18
2022-12-27T10:36:11.475Z,20.19
2022-12-27T10:38:37.835Z,20.23
2022-12-27T10:41:07.507Z,20.05
2022-12-27T10:43:36.509Z,20.21
2022-12-27T10:46:20.770Z,20.25
2022-12-27T10:51:45.856Z,20.34
2022-12-27T10:54:13.185Z,20.28
2022-12-27T10:56:41.372Z,20.31
2022-12-27T10:59:13.513Z,20.31
2022-12-27T11:01:39.937Z,20.29
2022-12-27T11:04:20.745Z,20.41
2022-12-27T11:06:48.779Z,20.61
2022-12-27T11:09:31.014Z,20.68
2022-12-27T11:12:16.264Z,20.76
2022-12-27T11:14:55.230Z,20.80
2022-12-27T11:17:23.539Z,20.67
2022-12-27T11:19:50.586Z,20.57
2022-12-27T11:22:22.848Z,20.46
2022-12-27T11:24:50.179Z,20.00
2022-12-27T11:27:26.031Z,19.90
2022-12-27T11:29:52.942Z,20.14
2022-12-27T11:32:19.649Z,20.28
2022-12-27T11:34:46.638Z,20.35
2022-12-27T11:37:15.509Z,20.40
2022-12-27T11:39:45.377Z,20.44
2022-12-27T11:42:32.441Z,20.46
2022-12-27T11:45:17.522Z,20.47
2022-12-27T11:47:52.119Z,20.47
2022-12-27T11:50:27.378Z,20.48
2022-12-27T11:53:05.856Z,20.46
2022-12-27T11:55:51.230Z,20.46
2022-12-27T11:58:23.362Z,20.44
2022-12-27T12:00:53.568Z,20.45
2022-12-27T12:03:31.718Z,20.46
2022-12-27T12:06:16.645Z,20.45
2022-12-27T12:08:59.767Z,20.47
2022-12-27T12:11:29.121Z,20.47
2022-12-27T12:14:04.655Z,20.47
2022-12-27T12:16:34.034Z,20.48
2022-12-27T12:19:03.261Z,20.51
2022-12-27T12:21:40.524Z,20.51
2022-12-27T12:24:25.503Z,20.50
2022-12-27T12:26:56.114Z,20.51
2022-12-27T12:29:25.661Z,20.53
2022-12-27T12:32:10.876Z,20.53
2022-12-27T12:34:42.023Z,20.56
2022-12-27T12:37:14.065Z,20.56
2022-12-27T12:39:50.974Z,20.56
2022-12-27T12:42:21.088Z,20.38
2022-12-27T12:45:00.033Z,20.54
2022-12-27T12:47:30.811Z,20.70
2022-12-27T12:50:00.048Z,20.76
2022-12-27T12:52:29.271Z,20.71
2022-12-27T12:55:13.288Z,20.62
2022-12-27T12:58:01.292Z,20.78
2022-12-27T13:00:36.475Z,20.81
2022-12-27T13:03:25.809Z,20.79
2022-12-27T13:05:53.689Z,20.76
2022-12-27T13:08:49.263Z,20.78
2022-12-27T13:11:18.587Z,20.80
2022-12-27T13:14:01.059Z,20.81
2022-12-27T13:16:30.895Z,20.82
2022-12-27T13:19:30.201Z,20.86
2022-12-27T13:22:07.246Z,20.87
2022-12-27T13:24:45.863Z,20.87
2022-12-27T13:27:41.326Z,20.88
2022-12-27T13:30:13.363Z,20.88
2022-12-27T13:32:58.626Z,20.89
2022-12-27T13:35:28.483Z,20.87
2022-12-27T13:38:03.668Z,20.93
2022-12-27T13:40:48.924Z,20.93
2022-12-27T13:43:34.639Z,20.95
2022-12-27T13:46:25.682Z,20.97
2022-12-27T13:48:56.127Z,21.07
2022-12-27T13:51:45.801Z,21.21
2022-12-27T13:54:24.448Z,21.30
2022-12-27T13:56:55.129Z,21.40
2022-12-27T13:59:26.940Z,21.34
2022-12-27T14:01:58.514Z,21.31
2022-12-27T14:04:43.897Z,21.30
2022-12-27T14:07:19.302Z,21.24
2022-12-27T14:09:55.504Z,21.22
2022-12-27T14:12:40.638Z,21.24
2022-12-27T14:15:07.201Z,21.22
2022-12-27T14:17:39.504Z,21.22
2022-12-27T14:20:08.515Z,21.19
2022-12-27T14:22:40.649Z,20.84
2022-12-27T14:25:29.883Z,20.91
2022-12-27T14:28:03.630Z,21.02
2022-12-27T14:30:46.317Z,21.11
2022-12-27T14:33:31.180Z,21.06
2022-12-27T14:36:21.227Z,21.04
2022-12-27T14:39:01.289Z,21.02
2022-12-27T14:41:46.395Z,21.01
2022-12-27T14:44:20.895Z,20.99
2022-12-27T14:46:47.152Z,20.95
2022-12-27T14:49:32.390Z,20.97
2022-12-27T14:52:17.350Z,20.93
2022-12-27T14:54:44.277Z,20.89
2022-12-27T14:57:34.028Z,20.90
2022-12-27T15:00:14.435Z,20.88
2022-12-27T15:02:44.653Z,20.86
2022-12-27T15:05:13.348Z,20.84
2022-12-27T15:07:59.851Z,20.85
2022-12-27T15:10:44.545Z,20.84
2022-12-27T15:13:14.857Z,20.85
2022-12-27T15:15:41.143Z,20.85
2022-12-27T15:18:15.539Z,20.83
2022-12-27T15:20:47.872Z,20.84
2022-12-27T15:23:14.107Z,20.83
2022-12-27T15:25:40.341Z,20.82
2022-12-27T15:28:10.130Z,20.81
2022-12-27T15:30:39.661Z,20.80
2022-12-27T15:33:13.735Z,20.80
2022-12-27T15:35:58.834Z,20.77
2022-12-27T15:38:49.643Z,20.77
2022-12-27T15:41:31.289Z,20.76
2022-12-27T15:44:00.887Z,20.76
2022-12-27T15:46:44.769Z,20.75
2022-12-27T15:49:11.022Z,20.74
2022-12-27T15:51:50.924Z,20.75
2022-12-27T15:54:20.119Z,20.75
2022-12-27T15:56:52.127Z,20.71
2022-12-27T15:59:30.866Z,20.71
2022-12-27T16:02:15.865Z,20.74
2022-12-27T16:05:14.699Z,20.75
2022-12-27T16:07:45.416Z,20.75
2022-12-27T16:10:27.060Z,20.76
2022-12-27T16:12:53.958Z,20.77
2022-12-27T16:15:35.543Z,20.77
2022-12-27T16:18:02.093Z,20.78
2022-12-27T16:20:28.513Z,20.79
2022-12-27T16:22:55.432Z,20.78
2022-12-27T16:25:30.138Z,20.78
2022-12-27T16:28:01.167Z,20.80
2022-12-27T16:30:57.229Z,20.79
2022-12-27T16:33:26.390Z,20.79
2022-12-27T16:36:03.039Z,20.78
2022-12-27T16:38:29.590Z,20.78
2022-12-27T16:40:57.212Z,20.79
2022-12-27T16:43:24.132Z,20.80
2022-12-27T16:45:54.140Z,20.80
2022-12-27T16:48:23.864Z,20.82
2022-12-27T16:51:11.934Z,20.81
2022-12-27T16:53:48.356Z,20.80
2022-12-27T16:56:24.131Z,20.80
2022-12-27T16:58:50.472Z,20.80
2022-12-27T17:01:25.925Z,20.81
2022-12-27T17:03:52.839Z,20.80
2022-12-27T17:09:10.501Z,20.82
2022-12-27T17:11:38.997Z,20.82
2022-12-27T17:14:15.424Z,20.84
2022-12-27T17:16:43.193Z,20.87
2022-12-27T17:19:29.114Z,20.87
2022-12-27T17:21:56.697Z,20.86
2022-12-27T17:24:23.251Z,20.87
2022-12-27T17:26:58.106Z,20.87
2022-12-27T17:29:29.825Z,20.87
2022-12-27T17:32:08.295Z,20.86
2022-12-27T17:34:44.574Z,20.84
2022-12-27T17:37:14.069Z,20.84
2022-12-27T17:39:59.294Z,20.84
2022-12-27T17:42:47.214Z,20.83
2022-12-27T17:45:33.935Z,20.84
2022-12-27T17:48:06.295Z,20.83
2022-12-27T17:50:32.685Z,20.82
2022-12-27T17:53:21.380Z,20.79
2022-12-27T17:56:17.437Z,20.78
2022-12-27T17:58:43.759Z,20.80
2022-12-27T18:01:10.138Z,20.78
2022-12-27T18:03:39.136Z,20.78
2022-12-27T18:06:05.481Z,20.77
2022-12-27T18:08:33.965Z,20.77
2022-12-27T18:11:00.603Z,20.76
2022-12-27T18:13:27.561Z,20.71
2022-12-27T18:15:53.887Z,20.79
2022-12-27T18:18:24.221Z,20.81
2022-12-27T18:20:57.402Z,20.86
2022-12-27T18:23:23.721Z,20.83
2022-12-27T18:25:51.575Z,20.82
2022-12-27T18:28:28.699Z,20.77
2022-12-27T18:30:57.570Z,20.76
2022-12-27T18:33:42.956Z,20.74
2022-12-27T18:36:09.774Z,20.76
2022-12-27T18:38:40.088Z,20.76
2022-12-27T18:41:07.174Z,20.77
2022-12-27T18:43:33.495Z,20.78
2022-12-27T18:45:59.871Z,20.77
2022-12-27T18:48:27.049Z,20.77
2022-12-27T18:50:53.449Z,20.77
2022-12-27T18:53:23.575Z,20.75
2022-12-27T18:56:05.967Z,20.76
2022-12-27T18:58:32.542Z,20.28
2022-12-27T19:01:17.762Z,19.40
2022-12-27T19:03:44.175Z,19.12
2022-12-27T19:06:11.657Z,19.54
2022-12-27T19:08:38.744Z,19.36
2022-12-27T19:11:05.499Z,19.46
2022-12-27T19:13:45.999Z,19.42
2022-12-27T19:16:22.944Z,19.21
2022-12-27T19:18:54.400Z,19.68
2022-12-27T19:21:31.913Z,19.91
2022-12-27T19:23:58.249Z,19.95
2022-12-27T19:26:25.337Z,20.06
2022-12-27T19:29:00.810Z,20.18
2022-12-27T19:31:27.171Z,20.24
2022-12-27T19:33:54.675Z,20.28
2022-12-27T19:36:33.861Z,20.24
2022-12-27T19:39:00.217Z,20.35
2022-12-27T19:41:26.566Z,20.33
2022-12-27T19:43:52.901Z,20.32
2022-12-27T19:46:19.699Z,20.40
2022-12-27T19:49:07.701Z,20.40
2022-12-27T19:51:32.645Z,20.41
2022-12-27T19:53:58.995Z,20.42
2022-12-27T19:56:25.317Z,20.44
2022-12-27T19:58:51.640Z,20.46
2022-12-27T20:01:18.080Z,20.46
2022-12-27T20:03:44.619Z,20.47
2022-12-27T20:06:20.849Z,20.48
2022-12-27T20:08:51.639Z,20.47
2022-12-27T20:11:18.947Z,20.47
2022-12-27T20:13:45.284Z,20.47
2022-12-27T20:16:12.277Z,20.46
2022-12-27T20:18:41.876Z,20.45
2022-12-27T20:21:11.486Z,20.46
2022-12-27T20:23:37.856Z,20.45
2022-12-27T20:26:04.173Z,20.45
2022-12-27T20:28:30.572Z,20.45
2022-12-27T20:30:56.921Z,20.45
2022-12-27T20:33:23.270Z,20.45
2022-12-27T20:35:58.532Z,20.45
2022-12-27T20:38:27.961Z,20.45
2022-12-27T20:40:54.363Z,20.46
2022-12-27T20:43:20.801Z,20.47
2022-12-27T20:45:47.174Z,20.45
2022-12-27T20:48:13.576Z,20.46
2022-12-27T20:50:39.933Z,20.46
2022-12-27T20:53:06.354Z,20.45
2022-12-27T20:55:34.229Z,20.45
2022-12-27T20:58:00.849Z,20.45
2022-12-27T21:00:27.330Z,20.45
2022-12-27T21:02:53.821Z,20.47
2022-12-27T21:05:20.374Z,20.48
2022-12-27T21:07:46.706Z,20.48
2022-12-27T21:10:13.088Z,20.50
2022-12-27T21:12:39.483Z,20.51
2022-12-27T21:15:08.159Z,20.54
2022-12-27T21:17:34.583Z,20.53
2022-12-27T21:20:00.908Z,20.54
2022-12-27T21:22:27.287Z,20.53
2022-12-27T21:24:53.635Z,20.53
2022-12-27T21:27:20.063Z,20.53
2022-12-27T21:29:52.361Z,20.51
2022-12-27T21:32:21.395Z,20.52
2022-12-27T21:34:50.616Z,20.50
2022-12-27T21:37:16.934Z,20.53
2022-12-27T21:39:43.270Z,20.54
2022-12-27T21:42:10.860Z,20.54
2022-12-27T21:44:38.726Z,20.53
2022-12-27T21:47:05.525Z,20.51
2022-12-27T21:49:31.896Z,20.51
2022-12-27T21:51:58.222Z,20.51
2022-12-27T21:54:24.545Z,20.51
2022-12-27T21:56:50.872Z,20.51
2022-12-27T21:59:17.202Z,20.50
2022-12-27T22:01:51.755Z,20.51
2022-12-27T22:04:19.790Z,20.54
2022-12-27T22:06:47.420Z,20.54
2022-12-27T22:09:14.220Z,20.53
2022-12-27T22:11:40.588Z,20.49
2022-12-27T22:14:06.965Z,20.49
2022-12-27T22:16:34.194Z,20.48
2022-12-27T22:19:00.542Z,20.47
2022-12-27T22:21:27.864Z,20.46
2022-12-27T22:23:54.583Z,20.46
2022-12-27T22:26:24.785Z,20.44
2022-12-27T22:28:51.119Z,20.44
2022-12-27T22:31:18.244Z,20.43
2022-12-27T22:33:47.199Z,20.43
2022-12-27T22:36:14.394Z,20.41
2022-12-27T22:38:40.876Z,20.41
2022-12-27T22:41:13.991Z,20.41
2022-12-27T22:43:40.518Z,20.40
2022-12-27T22:46:07.543Z,20.38
2022-12-27T22:48:34.005Z,20.38
2022-12-27T22:51:05.472Z,20.36
2022-12-27T22:53:31.796Z,20.35
2022-12-27T22:55:58.123Z,20.35
2022-12-27T22:58:26.085Z,20.34
2022-12-27T23:00:52.410Z,20.33
2022-12-27T23:03:18.741Z,20.31
2022-12-27T23:05:45.092Z,20.32
2022-12-27T23:08:11.469Z,20.31
2022-12-27T23:10:38.300Z,20.32
2022-12-27T23:13:04.621Z,20.31
2022-12-27T23:15:30.966Z,20.29
2022-12-27T23:17:57.308Z,20.28
2022-12-27T23:20:23.643Z,20.28
2022-12-27T23:22:49.963Z,20.29
2022-12-27T23:25:16.357Z,20.28
2022-12-27T23:27:42.704Z,20.25
2022-12-27T23:30:09.318Z,20.25
2022-12-27T23:32:35.676Z,20.24
2022-12-27T23:35:02.120Z,20.26
2022-12-27T23:37:28.433Z,20.28
2022-12-27T23:39:54.752Z,20.27
2022-12-27T23:42:21.070Z,20.25
2022-12-27T23:44:47.419Z,20.24
2022-12-27T23:47:13.736Z,20.22
2022-12-27T23:49:40.073Z,20.22
2022-12-27T23:52:06.392Z,20.20
2022-12-27T23:54:32.726Z,20.18
2022-12-27T23:57:19.410Z,20.18
2022-12-27T23:59:45.403Z,20.18
